sensor_id;sensor_type;location;lat;lon;timestamp;temperature;humidity
66831;DHT22;53739;44.224;22.528;2022-12-26T00:12:49;128.30;2252.80
66831;DHT22;53739;44.224;22.528;2022-12-26T00:25:31;103.30;2227.20
66831;DHT22;53739;44.224;22.528;2022-12-26T05:49:59;52.10;2227.20
66831;DHT22;53739;44.224;22.528;2022-12-26T05:52:24;52.10;1894.40
66831;DHT22;53739;44.224;22.528;2022-12-26T05:54:50;52.10;2227.20
66831;DHT22;53739;44.224;22.528;2022-12-26T05:57:16;52.10;2227.20
66831;DHT22;53739;44.224;22.528;2022-12-26T05:59:56;52.00;2227.20
66831;DHT22;53739;44.224;22.528;2022-12-26T06:02:41;52.10;2227.20
66831;DHT22;53739;44.224;22.528;2022-12-26T06:05:07;52.10;2227.20
66831;DHT22;53739;44.224;22.528;2022-12-26T06:27:46;51.20;2227.20
66831;DHT22;53739;44.224;22.528;2022-12-26T06:30:12;51.20;2227.20
66831;DHT22;53739;44.224;22.528;2022-12-26T06:32:57;51.20;2227.20
66831;DHT22;53739;44.224;22.528;2022-12-26T08:43:01;180.00;6502.40
66831;DHT22;53739;44.224;22.528;2022-12-26T08:46:08;204.90;6502.40
66831;DHT22;53739;44.224;22.528;2022-12-26T08:49:29;205.20;332.80
66831;DHT22;53739;44.224;22.528;2022-12-26T08:55:46;230.40;6502.40
66831;DHT22;53739;44.224;22.528;2022-12-26T08:59:00;230.50;6502.40
66831;DHT22;53739;44.224;22.528;2022-12-26T09:02:21;230.60;6502.40
66831;DHT22;53739;44.224;22.528;2022-12-26T09:26:16;256.90;6502.40
66831;DHT22;53739;44.224;22.528;2022-12-26T10:15:36;308.00;128.00
66831;DHT22;53739;44.224;22.528;2022-12-26T10:24:51;332.80;128.00
66831;DHT22;53739;44.224;22.528;2022-12-26T10:27:47;307.90;128.00
66831;DHT22;53739;44.224;22.528;2022-12-26T10:42:52;307.90;128.00
66831;DHT22;53739;44.224;22.528;2022-12-26T10:45:11;307.90;128.00
66831;DHT22;53739;44.224;22.528;2022-12-26T10:47:41;308.00;128.00
66831;DHT22;53739;44.224;22.528;2022-12-26T10:50:39;333.00;128.00
66831;DHT22;53739;44.224;22.528;2022-12-26T10:53:09;333.00;128.00
66831;DHT22;53739;44.224;22.528;2022-12-26T10:55:35;333.40;128.00
66831;DHT22;53739;44.224;22.528;2022-12-26T11:17:48;333.70;128.00
66831;DHT22;53739;44.224;22.528;2022-12-26T11:20:29;358.50;128.00
66831;DHT22;53739;44.224;22.528;2022-12-26T11:23:30;358.50;128.00
66831;DHT22;53739;44.224;22.528;2022-12-26T11:26:09;358.50;409.60
66831;DHT22;53739;44.224;22.528;2022-12-26T11:28:44;358.50;409.60
66831;DHT22;53739;44.224;22.528;2022-12-26T11:31:23;358.70;486.40
66831;DHT22;53739;44.224;22.528;2022-12-26T11:33:52;358.50;128.00
66831;DHT22;53739;44.224;22.528;2022-12-26T11:36:21;358.40;281.60
66831;DHT22;53739;44.224;22.528;2022-12-26T11:47:31;358.40;435.20
66831;DHT22;53739;44.224;22.528;2022-12-26T11:50:25;358.50;332.80
66831;DHT22;53739;44.224;22.528;2022-12-26T11:53:03;358.70;332.80
66831;DHT22;53739;44.224;22.528;2022-12-26T11:55:38;358.50;128.00
66831;DHT22;53739;44.224;22.528;2022-12-26T11:58:24;358.50;128.00
66831;DHT22;53739;44.224;22.528;2022-12-26T12:01:14;358.50;128.00
66831;DHT22;53739;44.224;22.528;2022-12-26T12:09:59;358.50;128.00
66831;DHT22;53739;44.224;22.528;2022-12-26T12:15:23;333.60;128.00
66831;DHT22;53739;44.224;22.528;2022-12-26T12:33:10;358.70;128.00
66831;DHT22;53739;44.224;22.528;2022-12-26T12:38:25;359.20;128.00
66831;DHT22;53739;44.224;22.528;2022-12-26T12:43:35;333.50;128.00
66831;DHT22;53739;44.224;22.528;2022-12-26T12:59:53;307.50;128.00
66831;DHT22;53739;44.224;22.528;2022-12-26T13:02:40;307.30;128.00
66831;DHT22;53739;44.224;22.528;2022-12-26T13:07:51;282.40;409.60
66831;DHT22;53739;44.224;22.528;2022-12-26T13:10:33;282.40;563.20
66831;DHT22;53739;44.224;22.528;2022-12-26T13:16:11;282.30;6528.00
66831;DHT22;53739;44.224;22.528;2022-12-26T13:18:43;282.20;6528.00
66831;DHT22;53739;44.224;22.528;2022-12-26T13:21:13;282.20;537.60
66831;DHT22;53739;44.224;22.528;2022-12-26T13:24:40;282.20;6528.00
66831;DHT22;53739;44.224;22.528;2022-12-26T13:29:43;282.20;6528.00
66831;DHT22;53739;44.224;22.528;2022-12-26T13:32:16;282.20;6528.00
66831;DHT22;53739;44.224;22.528;2022-12-26T13:34:44;282.10;6528.00
66831;DHT22;53739;44.224;22.528;2022-12-26T13:40:17;282.00;6528.00
66831;DHT22;53739;44.224;22.528;2022-12-26T13:42:52;282.00;6528.00
66831;DHT22;53739;44.224;22.528;2022-12-26T13:45:46;281.90;6528.00
66831;DHT22;53739;44.224;22.528;2022-12-26T13:50:46;281.70;6528.00
66831;DHT22;53739;44.224;22.528;2022-12-26T13:53:31;281.70;6528.00
66831;DHT22;53739;44.224;22.528;2022-12-26T13:56:01;256.90;6502.40
66831;DHT22;53739;44.224;22.528;2022-12-26T13:59:16;281.60;6528.00
66831;DHT22;53739;44.224;22.528;2022-12-26T14:01:58;281.60;6528.00
66831;DHT22;53739;44.224;22.528;2022-12-26T14:05:03;281.60;6528.00
66831;DHT22;53739;44.224;22.528;2022-12-26T14:16:16;256.80;6502.40
66831;DHT22;53739;44.224;22.528;2022-12-26T14:29:54;256.50;6502.40
66831;DHT22;53739;44.224;22.528;2022-12-26T14:32:39;256.50;6502.40
66831;DHT22;53739;44.224;22.528;2022-12-26T14:35:38;256.50;6502.40
66831;DHT22;53739;44.224;22.528;2022-12-26T14:38:23;256.40;6502.40
66831;DHT22;53739;44.224;22.528;2022-12-26T14:41:13;256.30;6502.40
66831;DHT22;53739;44.224;22.528;2022-12-26T14:47:00;256.00;6502.40
66831;DHT22;53739;44.224;22.528;2022-12-26T14:54:53;231.10;128.00
66831;DHT22;53739;44.224;22.528;2022-12-26T14:57:52;231.10;128.00
66831;DHT22;53739;44.224;22.528;2022-12-26T15:03:47;230.90;6502.40
66831;DHT22;53739;44.224;22.528;2022-12-26T15:08:59;230.70;6502.40
66831;DHT22;53739;44.224;22.528;2022-12-26T15:32:44;205.40;6502.40
66831;DHT22;53739;44.224;22.528;2022-12-26T15:35:25;205.40;6502.40
66831;DHT22;53739;44.224;22.528;2022-12-26T16:04:00;180.10;6502.40
66831;DHT22;53739;44.224;22.528;2022-12-26T16:09:31;179.90;6502.40
66831;DHT22;53739;44.224;22.528;2022-12-26T16:12:00;179.90;6502.40
66831;DHT22;53739;44.224;22.528;2022-12-26T16:14:32;179.80;6502.40
66831;DHT22;53739;44.224;22.528;2022-12-26T16:19:41;179.70;6502.40
66831;DHT22;53739;44.224;22.528;2022-12-26T16:22:14;179.70;6502.40
66831;DHT22;53739;44.224;22.528;2022-12-26T16:31:44;179.50;6502.40
66831;DHT22;53739;44.224;22.528;2022-12-26T16:34:22;179.40;153.60
66831;DHT22;53739;44.224;22.528;2022-12-26T16:36:49;179.40;6502.40
66831;DHT22;53739;44.224;22.528;2022-12-26T16:39:21;179.40;6502.40
66831;DHT22;53739;44.224;22.528;2022-12-26T16:42:05;179.30;6502.40
66831;DHT22;53739;44.224;22.528;2022-12-26T16:47:05;154.50;6502.40
66831;DHT22;53739;44.224;22.528;2022-12-26T16:49:32;154.50;6502.40
66831;DHT22;53739;44.224;22.528;2022-12-26T16:51:59;154.50;6502.40
66831;DHT22;53739;44.224;22.528;2022-12-26T16:54:34;154.50;6502.40
66831;DHT22;53739;44.224;22.528;2022-12-26T16:57:10;154.40;6502.40
66831;DHT22;53739;44.224;22.528;2022-12-26T16:59:56;154.20;6502.40
66831;DHT22;53739;44.224;22.528;2022-12-26T17:02:33;154.10;6502.40
66831;DHT22;53739;44.224;22.528;2022-12-26T17:05:06;154.10;6502.40
66831;DHT22;53739;44.224;22.528;2022-12-26T17:07:44;154.10;6502.40
66831;DHT22;53739;44.224;22.528;2022-12-26T17:10:19;154.00;6502.40
66831;DHT22;53739;44.224;22.528;2022-12-26T17:12:46;154.00;6502.40
66831;DHT22;53739;44.224;22.528;2022-12-26T17:15:30;154.00;6502.40
66831;DHT22;53739;44.224;22.528;2022-12-26T17:17:58;154.00;6502.40
66831;DHT22;53739;44.224;22.528;2022-12-26T17:22:54;153.90;6502.40
66831;DHT22;53739;44.224;22.528;2022-12-26T17:25:27;153.80;6502.40
66831;DHT22;53739;44.224;22.528;2022-12-26T17:30:47;153.80;6502.40
66831;DHT22;53739;44.224;22.528;2022-12-26T17:33:20;153.60;6502.40
66831;DHT22;53739;44.224;22.528;2022-12-26T17:35:54;153.60;6502.40
66831;DHT22;53739;44.224;22.528;2022-12-26T17:38:21;153.60;6502.40
66831;DHT22;53739;44.224;22.528;2022-12-26T17:40:49;153.60;6502.40
66831;DHT22;53739;44.224;22.528;2022-12-26T17:43:34;128.90;6502.40
66831;DHT22;53739;44.224;22.528;2022-12-26T17:46:02;128.90;6502.40
66831;DHT22;53739;44.224;22.528;2022-12-26T17:48:28;128.90;6502.40
66831;DHT22;53739;44.224;22.528;2022-12-26T17:50:59;128.80;6502.40
66831;DHT22;53739;44.224;22.528;2022-12-26T17:53:40;128.90;6502.40
66831;DHT22;53739;44.224;22.528;2022-12-26T17:56:11;128.70;256.00
66831;DHT22;53739;44.224;22.528;2022-12-26T17:58:38;128.50;2252.80
66831;DHT22;53739;44.224;22.528;2022-12-26T18:01:04;128.50;2252.80
66831;DHT22;53739;44.224;22.528;2022-12-26T18:03:30;128.40;2252.80
66831;DHT22;53739;44.224;22.528;2022-12-26T18:05:56;128.60;1100.80
66831;DHT22;53739;44.224;22.528;2022-12-26T18:10:56;128.50;1433.60
66831;DHT22;53739;44.224;22.528;2022-12-26T18:13:23;128.20;2252.80
66831;DHT22;53739;44.224;22.528;2022-12-26T18:15:50;128.20;2252.80
66831;DHT22;53739;44.224;22.528;2022-12-26T18:18:35;128.30;2252.80
66831;DHT22;53739;44.224;22.528;2022-12-26T18:21:02;128.40;2252.80
66831;DHT22;53739;44.224;22.528;2022-12-26T18:23:29;128.40;1433.60
66831;DHT22;53739;44.224;22.528;2022-12-26T18:25:58;128.40;614.40
66831;DHT22;53739;44.224;22.528;2022-12-26T18:28:24;128.40;640.00
66831;DHT22;53739;44.224;22.528;2022-12-26T18:30:49;128.40;742.40
66831;DHT22;53739;44.224;22.528;2022-12-26T18:33:15;128.20;2252.80
66831;DHT22;53739;44.224;22.528;2022-12-26T18:35:42;128.20;2252.80
66831;DHT22;53739;44.224;22.528;2022-12-26T18:38:14;128.20;2252.80
66831;DHT22;53739;44.224;22.528;2022-12-26T18:40:46;128.20;1894.40
66831;DHT22;53739;44.224;22.528;2022-12-26T18:43:12;128.10;2252.80
66831;DHT22;53739;44.224;22.528;2022-12-26T18:45:39;128.10;1049.60
66831;DHT22;53739;44.224;22.528;2022-12-26T18:48:06;128.10;1459.20
66831;DHT22;53739;44.224;22.528;2022-12-26T18:50:33;128.00;384.00
66831;DHT22;53739;44.224;22.528;2022-12-26T18:52:59;128.00;1049.60
66831;DHT22;53739;44.224;22.528;2022-12-26T18:55:25;103.30;1228.80
66831;DHT22;53739;44.224;22.528;2022-12-26T18:57:51;103.30;1587.20
66831;DHT22;53739;44.224;22.528;2022-12-26T19:00:18;103.00;2227.20
66831;DHT22;53739;44.224;22.528;2022-12-26T19:02:45;103.20;2227.20
66831;DHT22;53739;44.224;22.528;2022-12-26T19:05:27;103.20;2227.20
66831;DHT22;53739;44.224;22.528;2022-12-26T19:07:55;103.10;2227.20
66831;DHT22;53739;44.224;22.528;2022-12-26T19:10:25;103.00;2227.20
66831;DHT22;53739;44.224;22.528;2022-12-26T19:12:51;103.10;2227.20
66831;DHT22;53739;44.224;22.528;2022-12-26T19:15:17;103.10;2227.20
66831;DHT22;53739;44.224;22.528;2022-12-26T19:17:43;103.20;2227.20
66831;DHT22;53739;44.224;22.528;2022-12-26T19:20:22;103.20;2227.20
66831;DHT22;53739;44.224;22.528;2022-12-26T19:22:49;103.10;2227.20
66831;DHT22;53739;44.224;22.528;2022-12-26T19:25:15;103.00;2048.00
66831;DHT22;53739;44.224;22.528;2022-12-26T19:27:42;102.90;2227.20
66831;DHT22;53739;44.224;22.528;2022-12-26T19:30:09;102.90;2227.20
66831;DHT22;53739;44.224;22.528;2022-12-26T19:32:34;103.00;2227.20
66831;DHT22;53739;44.224;22.528;2022-12-26T19:35:00;103.00;2227.20
66831;DHT22;53739;44.224;22.528;2022-12-26T19:37:26;103.00;2227.20
66831;DHT22;53739;44.224;22.528;2022-12-26T19:39:53;102.80;2227.20
66831;DHT22;53739;44.224;22.528;2022-12-26T19:42:19;102.80;2022.40
66831;DHT22;53739;44.224;22.528;2022-12-26T19:44:45;102.80;2227.20
66831;DHT22;53739;44.224;22.528;2022-12-26T19:47:10;102.80;2227.20
66831;DHT22;53739;44.224;22.528;2022-12-26T19:49:36;102.80;2227.20
66831;DHT22;53739;44.224;22.528;2022-12-26T19:52:02;102.80;2227.20
66831;DHT22;53739;44.224;22.528;2022-12-26T19:54:28;102.80;2227.20
66831;DHT22;53739;44.224;22.528;2022-12-26T19:56:53;102.80;2227.20
66831;DHT22;53739;44.224;22.528;2022-12-26T19:59:19;102.70;2227.20
66831;DHT22;53739;44.224;22.528;2022-12-26T20:01:45;102.80;2227.20
66831;DHT22;53739;44.224;22.528;2022-12-26T20:04:11;102.80;2227.20
66831;DHT22;53739;44.224;22.528;2022-12-26T20:06:37;102.80;2227.20
66831;DHT22;53739;44.224;22.528;2022-12-26T20:09:06;102.80;2227.20
66831;DHT22;53739;44.224;22.528;2022-12-26T20:11:36;102.60;2227.20
66831;DHT22;53739;44.224;22.528;2022-12-26T20:14:05;102.50;2227.20
66831;DHT22;53739;44.224;22.528;2022-12-26T20:16:31;102.60;2227.20
66831;DHT22;53739;44.224;22.528;2022-12-26T20:18:57;102.50;2227.20
66831;DHT22;53739;44.224;22.528;2022-12-26T20:21:23;102.50;2227.20
66831;DHT22;53739;44.224;22.528;2022-12-26T20:23:48;102.50;2227.20
66831;DHT22;53739;44.224;22.528;2022-12-26T20:26:17;102.50;2201.60
66831;DHT22;53739;44.224;22.528;2022-12-26T20:28:46;102.50;2227.20
66831;DHT22;53739;44.224;22.528;2022-12-26T20:31:15;102.60;2227.20
66831;DHT22;53739;44.224;22.528;2022-12-26T20:33:43;102.50;2227.20
66831;DHT22;53739;44.224;22.528;2022-12-26T20:36:12;102.40;2227.20
66831;DHT22;53739;44.224;22.528;2022-12-26T20:38:39;102.40;2227.20
66831;DHT22;53739;44.224;22.528;2022-12-26T20:41:06;102.40;2227.20
66831;DHT22;53739;44.224;22.528;2022-12-26T20:43:32;102.50;2227.20
66831;DHT22;53739;44.224;22.528;2022-12-26T20:46:24;102.50;2227.20
66831;DHT22;53739;44.224;22.528;2022-12-26T20:48:50;102.50;2227.20
66831;DHT22;53739;44.224;22.528;2022-12-26T20:51:21;102.50;2227.20
66831;DHT22;53739;44.224;22.528;2022-12-26T20:53:48;102.50;2227.20
66831;DHT22;53739;44.224;22.528;2022-12-26T20:56:14;102.60;2227.20
66831;DHT22;53739;44.224;22.528;2022-12-26T20:58:40;102.70;2227.20
66831;DHT22;53739;44.224;22.528;2022-12-26T21:01:20;102.70;2227.20
66831;DHT22;53739;44.224;22.528;2022-12-26T21:03:47;102.60;2227.20
66831;DHT22;53739;44.224;22.528;2022-12-26T21:08:46;102.80;2227.20
66831;DHT22;53739;44.224;22.528;2022-12-26T21:11:31;102.80;2227.20
66831;DHT22;53739;44.224;22.528;2022-12-26T21:14:18;102.80;2227.20
66831;DHT22;53739;44.224;22.528;2022-12-26T21:16:48;102.90;2227.20
66831;DHT22;53739;44.224;22.528;2022-12-26T21:19:15;102.80;2227.20
66831;DHT22;53739;44.224;22.528;2022-12-26T21:21:47;102.80;2227.20
66831;DHT22;53739;44.224;22.528;2022-12-26T21:24:16;103.00;2227.20
66831;DHT22;53739;44.224;22.528;2022-12-26T21:26:45;103.00;2227.20
66831;DHT22;53739;44.224;22.528;2022-12-26T21:29:13;103.00;2227.20
66831;DHT22;53739;44.224;22.528;2022-12-26T21:31:39;103.00;2227.20
66831;DHT22;53739;44.224;22.528;2022-12-26T21:34:05;103.00;2227.20
66831;DHT22;53739;44.224;22.528;2022-12-26T21:36:31;103.00;2227.20
66831;DHT22;53739;44.224;22.528;2022-12-26T21:38:58;103.10;2227.20
66831;DHT22;53739;44.224;22.528;2022-12-26T21:41:24;103.20;2227.20
66831;DHT22;53739;44.224;22.528;2022-12-26T21:43:50;103.20;2227.20
66831;DHT22;53739;44.224;22.528;2022-12-26T21:46:18;103.30;2227.20
66831;DHT22;53739;44.224;22.528;2022-12-26T21:51:57;103.30;2227.20
66831;DHT22;53739;44.224;22.528;2022-12-26T21:54:23;128.00;2252.80
66831;DHT22;53739;44.224;22.528;2022-12-26T21:57:07;128.10;2252.80
66831;DHT22;53739;44.224;22.528;2022-12-26T21:59:33;128.10;2252.80
66831;DHT22;53739;44.224;22.528;2022-12-26T22:02:17;128.00;2252.80
66831;DHT22;53739;44.224;22.528;2022-12-26T22:05:01;128.00;2252.80
66831;DHT22;53739;44.224;22.528;2022-12-26T22:07:27;128.10;2252.80
66831;DHT22;53739;44.224;22.528;2022-12-26T22:09:53;128.20;1920.00
66831;DHT22;53739;44.224;22.528;2022-12-26T22:12:19;128.30;2252.80
66831;DHT22;53739;44.224;22.528;2022-12-26T22:15:04;128.30;2252.80
66831;DHT22;53739;44.224;22.528;2022-12-26T22:17:30;128.30;2252.80
66831;DHT22;53739;44.224;22.528;2022-12-26T22:19:56;128.30;2252.80
66831;DHT22;53739;44.224;22.528;2022-12-26T22:22:22;128.30;2252.80
66831;DHT22;53739;44.224;22.528;2022-12-26T22:24:47;128.20;2252.80
66831;DHT22;53739;44.224;22.528;2022-12-26T22:27:13;128.20;2252.80
66831;DHT22;53739;44.224;22.528;2022-12-26T22:29:39;128.30;2252.80
66831;DHT22;53739;44.224;22.528;2022-12-26T22:32:04;128.40;2252.80
66831;DHT22;53739;44.224;22.528;2022-12-26T22:34:30;128.40;2252.80
66831;DHT22;53739;44.224;22.528;2022-12-26T22:36:56;128.40;2252.80
66831;DHT22;53739;44.224;22.528;2022-12-26T22:39:22;128.30;2252.80
66831;DHT22;53739;44.224;22.528;2022-12-26T22:41:47;128.20;2252.80
66831;DHT22;53739;44.224;22.528;2022-12-26T22:44:14;128.10;2252.80
66831;DHT22;53739;44.224;22.528;2022-12-26T22:46:40;128.00;2252.80
66831;DHT22;53739;44.224;22.528;2022-12-26T22:49:06;128.10;2252.80
66831;DHT22;53739;44.224;22.528;2022-12-26T22:51:32;128.00;2252.80
66831;DHT22;53739;44.224;22.528;2022-12-26T22:53:59;128.00;2252.80
66831;DHT22;53739;44.224;22.528;2022-12-26T22:56:26;128.00;2252.80
66831;DHT22;53739;44.224;22.528;2022-12-26T22:58:53;128.10;2252.80
66831;DHT22;53739;44.224;22.528;2022-12-26T23:01:19;128.20;2252.80
66831;DHT22;53739;44.224;22.528;2022-12-26T23:03:45;128.20;2252.80
66831;DHT22;53739;44.224;22.528;2022-12-26T23:06:31;128.30;2252.80
66831;DHT22;53739;44.224;22.528;2022-12-26T23:09:00;128.20;2252.80
66831;DHT22;53739;44.224;22.528;2022-12-26T23:11:32;128.40;2252.80
66831;DHT22;53739;44.224;22.528;2022-12-26T23:13:58;128.30;1996.80
66831;DHT22;53739;44.224;22.528;2022-12-26T23:16:53;128.30;2252.80
66831;DHT22;53739;44.224;22.528;2022-12-26T23:19:33;128.30;2252.80
66831;DHT22;53739;44.224;22.528;2022-12-26T23:22:18;128.10;2252.80
66831;DHT22;53739;44.224;22.528;2022-12-26T23:24:44;128.30;2252.80
66831;DHT22;53739;44.224;22.528;2022-12-26T23:27:10;128.20;2252.80
66831;DHT22;53739;44.224;22.528;2022-12-26T23:29:54;128.20;2252.80
66831;DHT22;53739;44.224;22.528;2022-12-26T23:32:40;128.30;2252.80
66831;DHT22;53739;44.224;22.528;2022-12-26T23:35:07;128.30;2252.80
66831;DHT22;53739;44.224;22.528;2022-12-26T23:37:34;128.30;2252.80
66831;DHT22;53739;44.224;22.528;2022-12-26T23:40:00;128.40;2252.80
66831;DHT22;53739;44.224;22.528;2022-12-26T23:42:25;128.40;2252.80
66831;DHT22;53739;44.224;22.528;2022-12-26T23:44:51;128.40;2252.80
66831;DHT22;53739;44.224;22.528;2022-12-26T23:47:17;128.20;2252.80
66831;DHT22;53739;44.224;22.528;2022-12-26T23:49:43;128.20;2252.80
66831;DHT22;53739;44.224;22.528;2022-12-26T23:52:08;128.30;2124.80
66831;DHT22;53739;44.224;22.528;2022-12-26T23:54:34;128.00;2252.80
66831;DHT22;53739;44.224;22.528;2022-12-26T23:57:00;128.00;2252.80
66831;DHT22;53739;44.224;22.528;2022-12-26T23:59:41;128.00;2252.80
